Time;durP1;ratioP1;P1;durP2;ratioP2;P2;SDS_P1;SDS_P2;PMS_P1;PMS_P2;Temp;Humidity;BMP_temperature;BMP_pressure;BME280_temperature;BME280_humidity;BME280_pressure;Samples;Min_cycle;Max_cycle;Signal;HPM_P1;HPM_P2
2023/11/06 00:00:04;;;;;;;3.80;3.60;;;;;;;11.34;100.00;98157.15;88276;288;25972;-84
2023/11/06 00:02:07;;;;;;;4.60;3.80;;;;;;;11.33;100.00;98156.83;88286;285;22715;-84
2023/11/06 00:04:14;;;;;;;4.20;3.80;;;;;;;11.32;100.00;98157.03;88105;285;136451;-83
2023/11/06 00:06:16;;;;;;;4.40;4.00;;;;;;;11.31;100.00;98155.05;87794;288;692878;-86
2023/11/06 00:08:18;;;;;;;4.00;3.70;;;;;;;11.26;100.00;98138.33;89551;284;136425;-81
2023/11/06 00:10:20;;;;;;;4.50;3.90;;;;;;;11.30;100.00;98151.24;90509;283;26346;-75
2023/11/06 00:12:23;;;;;;;3.90;3.30;;;;;;;11.32;100.00;98151.70;88913;287;136674;-84
2023/11/06 00:14:25;;;;;;;4.40;4.10;;;;;;;11.32;100.00;98150.73;88481;279;22529;-79
2023/11/06 00:16:28;;;;;;;4.90;4.50;;;;;;;11.32;100.00;98154.36;88223;287;136617;-84
2023/11/06 00:18:30;;;;;;;4.00;3.40;;;;;;;11.31;100.00;98149.92;88375;280;22534;-80
2023/11/06 00:20:32;;;;;;;4.70;3.90;;;;;;;11.31;100.00;98147.78;88234;287;137580;-87
2023/11/06 00:22:34;;;;;;;4.50;4.10;;;;;;;11.29;100.00;98143.17;88336;284;22548;-84
2023/11/06 00:24:37;;;;;;;3.90;3.40;;;;;;;11.27;100.00;98144.27;88337;286;136714;-85
2023/11/06 00:26:39;;;;;;;7.20;4.00;;;;;;;11.27;100.00;98140.48;88479;282;22530;-82
2023/11/06 00:28:43;;;;;;;3.90;3.50;;;;;;;11.25;100.00;98142.05;88060;285;136484;-76
2023/11/06 00:30:46;;;;;;;4.80;3.10;;;;;;;11.25;100.00;98146.27;88261;287;22557;-82
2023/11/06 00:32:48;;;;;;;4.10;3.70;;;;;;;11.22;100.00;98145.96;88160;279;136645;-69
2023/11/06 00:34:50;;;;;;;4.00;3.70;;;;;;;11.20;100.00;98145.09;88332;287;26283;-80
2023/11/06 00:36:53;;;;;;;3.50;3.00;;;;;;;11.22;100.00;98148.42;88417;287;136534;-81
2023/11/06 00:38:55;;;;;;;2.90;2.70;;;;;;;11.26;100.00;98149.11;88151;288;25198;-81
2023/11/06 00:40:57;;;;;;;3.30;3.00;;;;;;;11.27;100.00;98158.52;88249;283;140360;-78
2023/11/06 00:42:59;;;;;;;4.60;2.90;;;;;;;11.25;100.00;98157.58;88244;287;26264;-76
2023/11/06 00:45:04;;;;;;;3.40;3.10;;;;;;;11.24;100.00;98158.35;88087;287;137494;-80
2023/11/06 00:47:06;;;;;;;3.90;2.80;;;;;;;11.25;100.00;98161.05;88283;287;25124;-83
2023/11/06 00:49:10;;;;;;;5.40;3.30;;;;;;;11.25;100.00;98156.73;88580;288;138011;-79
2023/11/06 00:51:12;;;;;;;2.90;2.70;;;;;;;11.27;100.00;98149.87;90124;287;22481;-75
2023/11/06 00:53:14;;;;;;;5.00;3.20;;;;;;;11.28;100.00;98152.05;89265;287;136318;-83
2023/11/06 00:55:17;;;;;;;3.80;2.70;;;;;;;11.29;100.00;98152.36;88356;287;25077;-71
2023/11/06 00:57:18;;;;;;;5.00;2.60;;;;;;;11.36;100.00;98158.09;88150;284;136601;-78
2023/11/06 00:59:20;;;;;;;3.30;3.00;;;;;;;11.37;100.00;98158.10;88314;279;22696;-81
2023/11/06 01:01:25;;;;;;;3.40;2.70;;;;;;;11.38;100.00;98159.52;88264;282;136498;-82
2023/11/06 01:03:27;;;;;;;2.70;2.60;;;;;;;11.39;100.00;98158.98;88415;286;24192;-79
2023/11/06 01:05:31;;;;;;;6.20;2.90;;;;;;;11.38;100.00;98159.63;88273;279;136795;-81
2023/11/06 01:07:33;;;;;;;4.60;2.30;;;;;;;11.38;100.00;98162.07;88344;283;25185;-81
2023/11/06 01:09:37;;;;;;;3.30;2.80;;;;;;;11.38;100.00;98163.45;88377;283;136428;-83
2023/11/06 01:11:39;;;;;;;5.50;1.90;;;;;;;11.38;100.00;98165.39;88438;275;24093;-81
2023/11/06 01:13:41;;;;;;;2.40;2.30;;;;;;;11.37;100.00;98167.65;88313;280;136633;-83
2023/11/06 01:15:43;;;;;;;3.80;2.70;;;;;;;11.37;100.00;98175.34;88402;283;22537;-79
2023/11/06 01:17:45;;;;;;;2.60;2.40;;;;;;;11.36;100.00;98173.61;88278;283;136457;-83
2023/11/06 01:19:48;;;;;;;2.30;2.10;;;;;;;11.38;100.00;98172.20;88454;280;24061;-77
2023/11/06 01:21:50;;;;;;;3.60;3.00;;;;;;;11.39;100.00;98170.40;88193;277;136401;-81
2023/11/06 01:23:53;;;;;;;3.10;2.40;;;;;;;11.39;100.00;98172.77;88358;276;22619;-80
2023/11/06 01:25:56;;;;;;;3.70;2.80;;;;;;;11.39;100.00;98173.66;88289;276;136298;-76
2023/11/06 01:27:58;;;;;;;2.50;2.30;;;;;;;11.41;100.00;98178.42;88449;284;25230;-75
2023/11/06 01:30:00;;;;;;;3.70;2.90;;;;;;;11.38;100.00;98182.23;88297;276;136053;-78
2023/11/06 01:32:05;;;;;;;3.00;2.80;;;;;;;11.38;100.00;98182.23;88559;284;22539;-79
2023/11/06 01:34:07;;;;;;;5.70;3.20;;;;;;;11.38;100.00;98183.35;88692;276;22544;-77
2023/11/06 01:36:09;;;;;;;4.80;2.80;;;;;;;11.37;100.00;98193.38;88335;278;138073;-80
2023/11/06 01:38:11;;;;;;;3.70;3.30;;;;;;;11.32;100.00;98191.91;88538;283;23289;-80
2023/11/06 01:40:13;;;;;;;7.20;3.10;;;;;;;11.38;100.00;98202.45;88288;275;137098;-78
2023/11/06 01:42:17;;;;;;;3.20;3.00;;;;;;;11.38;100.00;98203.26;88414;283;26212;-77
2023/11/06 01:44:18;;;;;;;2.70;2.60;;;;;;;11.38;100.00;98209.45;88303;283;136922;-77
2023/11/06 01:46:20;;;;;;;3.70;3.00;;;;;;;11.38;100.00;98210.89;88354;276;24536;-76
2023/11/06 01:48:27;;;;;;;3.90;3.10;;;;;;;11.38;100.00;98209.76;88311;283;138038;-77
2023/11/06 01:50:31;;;;;;;4.30;3.30;;;;;;;11.38;100.00;98210.51;88415;285;22536;-78
2023/11/06 01:52:34;;;;;;;5.00;2.90;;;;;;;11.41;100.00;98212.63;88228;283;136515;-75
2023/11/06 01:54:37;;;;;;;3.50;3.30;;;;;;;11.42;100.00;98204.64;88502;284;22592;-76
2023/11/06 01:56:40;;;;;;;5.90;4.20;;;;;;;11.43;100.00;98215.02;88348;276;136540;-74
2023/11/06 01:58:43;;;;;;;2.70;2.40;;;;;;;11.40;100.00;98222.16;88365;277;24177;-76
2023/11/06 02:00:45;;;;;;;2.70;2.40;;;;;;;11.39;100.00;98221.24;88712;284;136317;-73
2023/11/06 02:02:48;;;;;;;3.50;2.90;;;;;;;11.38;100.00;98225.02;88817;285;24059;-71
2023/11/06 02:04:51;;;;;;;7.50;2.80;;;;;;;11.39;100.00;98230.79;88373;280;136714;-80
2023/11/06 02:06:56;;;;;;;4.20;2.60;;;;;;;11.41;100.00;98228.58;88442;283;25242;-77
2023/11/06 02:08:58;;;;;;;4.80;2.70;;;;;;;11.43;100.00;98225.41;88365;276;136950;-76
2023/11/06 02:11:03;;;;;;;2.60;1.60;;;;;;;11.42;100.00;98225.65;88712;280;23953;-74
2023/11/06 02:13:06;;;;;;;4.90;2.20;;;;;;;11.42;100.00;98227.36;88842;280;136565;-74
2023/11/06 02:15:13;;;;;;;4.20;2.40;;;;;;;11.41;100.00;98229.64;89055;280;22993;-74
2023/11/06 02:17:15;;;;;;;3.50;2.00;;;;;;;11.40;100.00;98227.19;88850;284;136708;-79
2023/11/06 02:19:17;;;;;;;4.90;2.50;;;;;;;11.41;100.00;98233.59;88325;277;22539;-79
2023/11/06 02:21:19;;;;;;;2.70;2.40;;;;;;;11.41;100.00;98241.81;88442;280;137946;-75
2023/11/06 02:23:25;;;;;;;2.50;2.30;;;;;;;11.40;100.00;98246.82;88439;281;25214;-71
2023/11/06 02:25:27;;;;;;;2.80;2.20;;;;;;;11.40;100.00;98250.77;88466;283;136609;-72
2023/11/06 02:27:29;;;;;;;12.60;2.80;;;;;;;11.40;100.00;98255.77;88491;277;22551;-73
2023/11/06 02:29:30;;;;;;;3.90;2.30;;;;;;;11.39;100.00;98258.04;88213;276;138418;-71
2023/11/06 02:31:32;;;;;;;2.20;2.00;;;;;;;11.37;100.00;98256.41;88360;281;25172;-75
2023/11/06 02:33:34;;;;;;;1.90;1.70;;;;;;;11.34;100.00;98263.11;88275;284;137969;-76
2023/11/06 02:35:38;;;;;;;2.10;1.90;;;;;;;11.30;100.00;98273.86;88424;283;22620;-78
2023/11/06 02:37:40;;;;;;;5.80;2.30;;;;;;;11.27;100.00;98277.29;88353;277;136631;-76
2023/11/06 02:39:43;;;;;;;2.50;2.10;;;;;;;11.24;100.00;98282.68;88495;280;25124;-72
2023/11/06 02:41:45;;;;;;;1.90;1.80;;;;;;;11.18;100.00;98273.31;88271;277;136680;-73
2023/11/06 02:43:46;;;;;;;2.50;2.20;;;;;;;11.13;100.00;98279.78;88478;279;25106;-74
2023/11/06 02:45:48;;;;;;;2.10;2.00;;;;;;;11.10;100.00;98287.38;88236;276;136881;-74
2023/11/06 02:47:50;;;;;;;3.10;2.40;;;;;;;11.10;100.00;98285.29;88392;275;23713;-67
2023/11/06 02:49:52;;;;;;;4.00;1.50;;;;;;;11.11;100.00;98287.70;88258;280;138390;-73
2023/11/06 02:51:54;;;;;;;2.70;2.50;;;;;;;11.10;100.00;98285.19;88358;280;25538;-72
2023/11/06 02:53:56;;;;;;;2.60;1.50;;;;;;;11.08;100.00;98285.36;88511;284;136645;-71
2023/11/06 02:55:58;;;;;;;5.20;2.40;;;;;;;11.07;100.00;98284.98;88442;283;22532;-70
2023/11/06 02:58:00;;;;;;;2.40;2.20;;;;;;;11.07;100.00;98285.13;88392;275;137583;-64
2023/11/06 03:00:06;;;;;;;2.40;2.10;;;;;;;11.07;100.00;98286.03;88507;276;25130;-65
2023/11/06 03:02:08;;;;;;;5.30;2.50;;;;;;;11.06;100.00;98287.10;88458;277;22524;-68
2023/11/06 03:04:14;;;;;;;4.30;1.80;;;;;;;11.07;100.00;98297.92;88243;277;136601;-72
2023/11/06 03:06:15;;;;;;;;;;;;;;;11.06;100.00;98300.64;88323;282;25152;-73
2023/11/06 03:08:18;;;;;;;3.40;2.50;;;;;;;11.04;100.00;98305.63;88527;275;123296;-68
2023/11/06 03:10:20;;;;;;;2.20;2.00;;;;;;;11.01;100.00;98311.97;88460;279;25166;-72
2023/11/06 03:12:22;;;;;;;8.60;2.70;;;;;;;11.00;100.00;98310.51;88258;280;137213;-70
2023/11/06 03:14:23;;;;;;;2.60;2.30;;;;;;;11.01;100.00;98314.14;88467;283;22528;-71
2023/11/06 03:16:26;;;;;;;2.30;1.90;;;;;;;11.00;100.00;98317.33;88282;275;137218;-72
2023/11/06 03:18:28;;;;;;;2.70;2.50;;;;;;;10.98;100.00;98317.35;88502;282;22631;-72
2023/11/06 03:20:30;;;;;;;4.00;3.20;;;;;;;10.97;100.00;98320.22;88349;281;136990;-72
2023/11/06 03:22:32;;;;;;;4.90;3.50;;;;;;;10.98;100.00;98324.91;88408;276;22553;-64
2023/11/06 03:24:36;;;;;;;2.70;2.20;;;;;;;10.98;100.00;98324.23;88358;283;137072;-74
2023/11/06 03:26:39;;;;;;;3.20;2.20;;;;;;;10.97;100.00;98324.20;88382;279;24055;-72
2023/11/06 03:28:41;;;;;;;1.50;1.40;;;;;;;10.95;100.00;98332.28;88311;275;137225;-73
2023/11/06 03:30:44;;;;;;;3.60;2.20;;;;;;;10.94;100.00;98331.35;88352;284;23842;-74
2023/11/06 03:32:47;;;;;;;1.80;1.70;;;;;;;10.94;100.00;98337.69;88395;275;138405;-69
2023/11/06 03:34:49;;;;;;;1.60;1.50;;;;;;;10.94;100.00;98344.10;88438;279;24037;-71
2023/11/06 03:36:51;;;;;;;2.00;1.90;;;;;;;10.95;100.00;98347.30;88421;284;138378;-72
2023/11/06 03:38:54;;;;;;;2.20;1.50;;;;;;;10.95;100.00;98347.94;88518;279;22600;-70
2023/11/06 03:40:56;;;;;;;1.60;1.50;;;;;;;10.95;100.00;98345.92;88312;275;137250;-74
2023/11/06 03:42:57;;;;;;;1.60;1.50;;;;;;;10.94;100.00;98350.38;88479;276;22618;-74
2023/11/06 03:44:59;;;;;;;1.70;1.50;;;;;;;10.93;100.00;98353.45;88316;283;137281;-76
2023/11/06 03:47:03;;;;;;;1.60;1.50;;;;;;;10.91;100.00;98356.52;88449;283;22527;-72
2023/11/06 03:49:06;;;;;;;2.70;1.70;;;;;;;10.90;100.00;98360.08;88385;276;138068;-71
2023/11/06 03:51:08;;;;;;;1.70;1.60;;;;;;;10.89;100.00;98362.34;88702;280;22542;-72
2023/11/06 03:53:10;;;;;;;1.90;1.60;;;;;;;10.88;100.00;98363.06;88925;283;137243;-70
2023/11/06 03:55:15;;;;;;;2.00;1.40;;;;;;;10.87;100.00;98369.50;89038;283;22522;-73
2023/11/06 03:57:17;;;;;;;4.50;1.90;;;;;;;10.85;100.00;98371.48;88745;280;137224;-71
2023/11/06 03:59:19;;;;;;;2.40;1.50;;;;;;;10.84;100.00;98375.20;88854;283;22525;-72
2023/11/06 04:01:21;;;;;;;2.50;2.20;;;;;;;10.83;100.00;98374.12;89017;283;136904;-71
2023/11/06 04:03:22;;;;;;;1.70;1.60;;;;;;;10.80;100.00;98374.71;89425;276;22475;-67
2023/11/06 04:05:24;;;;;;;11.60;2.20;;;;;;;10.79;100.00;98376.86;89134;283;136621;-64
2023/11/06 04:07:26;;;;;;;2.90;2.10;;;;;;;10.78;100.00;98380.68;88484;276;22687;-67
2023/11/06 04:09:27;;;;;;;3.10;1.70;;;;;;;10.75;100.00;98382.29;88293;281;137175;-68
2023/11/06 04:11:29;;;;;;;3.10;2.10;;;;;;;10.72;100.00;98388.99;88369;284;24098;-71
2023/11/06 04:13:33;;;;;;;2.00;1.90;;;;;;;10.71;100.00;98394.47;88311;276;138287;-72
2023/11/06 04:15:36;;;;;;;4.40;2.00;;;;;;;10.70;100.00;98392.27;88434;283;22526;-68
2023/11/06 04:17:38;;;;;;;4.00;1.70;;;;;;;10.70;100.00;98401.20;88329;276;136943;-75
2023/11/06 04:19:41;;;;;;;2.00;1.80;;;;;;;10.71;100.00;98400.11;88571;283;25173;-70
2023/11/06 04:21:43;;;;;;;1.80;1.60;;;;;;;10.70;100.00;98409.48;88568;276;136818;-70
2023/11/06 04:23:45;;;;;;;1.80;1.70;;;;;;;10.70;100.00;98410.76;88518;276;24041;-68
2023/11/06 04:25:48;;;;;;;2.50;2.30;;;;;;;10.71;100.00;98415.98;88369;275;136725;-70
2023/11/06 04:27:50;;;;;;;1.70;1.20;;;;;;;10.68;100.00;98421.27;88556;276;22537;-75
2023/11/06 04:29:52;;;;;;;2.60;1.80;;;;;;;10.69;100.00;98422.77;88332;276;137618;-71
2023/11/06 04:31:54;;;;;;;2.00;1.90;;;;;;;10.69;100.00;98429.00;88512;276;25641;-72
2023/11/06 04:33:56;;;;;;;2.30;1.70;;;;;;;10.67;100.00;98434.77;88266;276;136701;-71
2023/11/06 04:35:59;;;;;;;1.90;1.60;;;;;;;10.64;100.00;98438.66;88347;284;26000;-71
2023/11/06 04:38:01;;;;;;;3.30;1.90;;;;;;;10.62;100.00;98445.27;88314;280;137653;-74
2023/11/06 04:40:10;;;;;;;2.30;1.90;;;;;;;10.60;100.00;98447.52;88287;283;137286;-74
2023/11/06 04:42:12;;;;;;;1.60;1.50;;;;;;;10.58;100.00;98450.80;88538;283;25213;-74
2023/11/06 04:44:14;;;;;;;1.90;1.40;;;;;;;10.48;100.00;98444.66;88280;283;137887;-76
2023/11/06 04:46:15;;;;;;;1.50;1.40;;;;;;;10.46;100.00;98447.61;88448;283;22599;-73
2023/11/06 04:48:17;;;;;;;1.30;1.20;;;;;;;10.51;100.00;98462.27;88294;283;138087;-72
2023/11/06 04:50:19;;;;;;;3.90;2.00;;;;;;;10.50;100.00;98469.75;88291;283;22537;-71
2023/11/06 04:52:21;;;;;;;1.60;1.20;;;;;;;10.42;100.00;98460.99;88280;283;137213;-72
2023/11/06 04:54:23;;;;;;;2.90;1.70;;;;;;;10.46;100.00;98472.54;88326;280;24021;-71
2023/11/06 04:56:25;;;;;;;2.70;2.40;;;;;;;10.43;100.00;98471.40;88268;280;137093;-73
2023/11/06 04:58:27;;;;;;;2.70;2.00;;;;;;;10.43;100.00;98479.76;88306;279;25093;-72
2023/11/06 05:00:29;;;;;;;1.80;1.70;;;;;;;10.43;100.00;98491.40;88292;276;137046;-72
2023/11/06 05:02:30;;;;;;;2.20;1.60;;;;;;;10.41;100.00;98496.40;88042;276;22530;-70
2023/11/06 05:04:32;;;;;;;2.10;2.00;;;;;;;10.41;100.00;98496.55;88141;276;138385;-65
2023/11/06 05:06:34;;;;;;;1.90;1.80;;;;;;;10.42;100.00;98505.52;88190;275;22553;-70
2023/11/06 05:08:36;;;;;;;2.40;2.20;;;;;;;10.42;100.00;98511.98;88107;279;137874;-67
2023/11/06 05:10:38;;;;;;;3.40;1.90;;;;;;;10.43;100.00;98518.65;88332;275;22527;-67
2023/11/06 05:12:40;;;;;;;4.00;2.80;;;;;;;10.43;100.00;98527.77;88188;276;136704;-67
2023/11/06 05:14:42;;;;;;;4.70;2.90;;;;;;;10.42;100.00;98525.30;88193;275;22612;-66
2023/11/06 05:16:44;;;;;;;4.30;2.80;;;;;;;10.41;100.00;98524.95;88093;283;136908;-69
2023/11/06 05:18:46;;;;;;;3.30;2.30;;;;;;;10.37;100.00;98528.65;88188;279;25149;-70
2023/11/06 05:20:48;;;;;;;3.20;2.40;;;;;;;10.44;100.00;98528.21;88754;279;137060;-73
2023/11/06 05:22:50;;;;;;;2.90;1.90;;;;;;;10.63;100.00;98529.81;88186;277;25112;-81
2023/11/06 05:24:52;;;;;;;2.40;2.10;;;;;;;10.98;100.00;98535.18;88153;276;137371;-77
2023/11/06 05:26:53;;;;;;;2.30;2.00;;;;;;;11.46;100.00;98532.19;88212;278;22548;-80
2023/11/06 05:28:56;;;;;;;1.60;1.50;;;;;;;11.97;100.00;98543.36;88100;280;136753;-78
2023/11/06 05:30:57;;;;;;;2.80;2.20;;;;;;;12.52;100.00;98546.27;88379;276;24017;-70
2023/11/06 05:32:59;;;;;;;2.20;1.20;;;;;;;13.09;100.00;98554.48;88207;276;136823;-78
2023/11/06 05:35:02;;;;;;;1.90;1.50;;;;;;;13.61;100.00;98566.84;88209;275;25438;-69
2023/11/06 05:37:05;;;;;;;3.80;0.90;;;;;;;14.16;100.00;98568.39;89615;280;137744;-75
2023/11/06 05:39:07;;;;;;;2.90;0.80;;;;;;;14.54;100.00;98569.23;88240;284;22634;-75
2023/11/06 05:41:10;;;;;;;2.40;0.80;;;;;;;14.66;100.00;98572.77;89131;281;138117;-74
2023/11/06 05:43:12;;;;;;;2.40;1.50;;;;;;;14.54;100.00;98575.14;88415;276;25194;-76
2023/11/06 05:45:15;;;;;;;1.30;1.20;;;;;;;14.25;100.00;98571.27;88281;280;138340;-72
2023/11/06 05:47:16;;;;;;;2.30;1.50;;;;;;;13.99;100.00;98575.15;88534;276;26303;-77
2023/11/06 05:49:18;;;;;;;3.60;1.60;;;;;;;13.71;100.00;98573.95;88287;280;136972;-76
2023/11/06 05:51:20;;;;;;;2.10;1.30;;;;;;;13.50;100.00;98567.95;88430;283;22539;-71
2023/11/06 05:53:22;;;;;;;3.00;1.50;;;;;;;13.32;100.00;98573.58;88211;280;136971;-74
2023/11/06 05:55:24;;;;;;;3.30;1.70;;;;;;;13.09;100.00;98579.36;88275;275;22596;-75
2023/11/06 05:57:26;;;;;;;2.20;2.00;;;;;;;12.85;100.00;98590.86;88215;283;137052;-73
2023/11/06 05:59:28;;;;;;;4.60;1.60;;;;;;;12.66;100.00;98592.83;88254;283;22541;-76
2023/11/06 06:01:30;;;;;;;2.60;1.80;;;;;;;12.51;100.00;98597.67;88168;284;137037;-78
2023/11/06 06:03:32;;;;;;;3.10;2.30;;;;;;;12.38;100.00;98594.75;88230;283;22596;-74
2023/11/06 06:05:34;;;;;;;3.80;2.30;;;;;;;12.31;100.00;98599.23;88243;283;136872;-64
2023/11/06 06:07:36;;;;;;;3.00;1.70;;;;;;;12.26;100.00;98597.55;88249;280;25207;-76
2023/11/06 06:09:40;;;;;;;3.60;1.70;;;;;;;12.21;100.00;98602.11;88225;276;136869;-77
2023/11/06 06:11:43;;;;;;;2.80;1.70;;;;;;;12.14;100.00;98603.48;88292;276;24465;-76
2023/11/06 06:13:46;;;;;;;4.60;1.30;;;;;;;12.11;100.00;98603.70;88112;283;137136;-75
2023/11/06 06:15:48;;;;;;;2.30;1.20;;;;;;;12.09;100.00;98620.21;88239;280;24025;-75
2023/11/06 06:17:50;;;;;;;1.30;1.10;;;;;;;12.07;100.00;98611.82;88445;281;136438;-77
2023/11/06 06:19:52;;;;;;;1.50;1.00;;;;;;;12.08;100.00;98611.88;88453;283;22681;-77
2023/11/06 06:21:54;;;;;;;1.70;1.20;;;;;;;12.09;100.00;98610.02;88195;283;136866;-76
2023/11/06 06:23:57;;;;;;;1.60;1.50;;;;;;;12.09;100.00;98618.55;88205;279;22549;-75
2023/11/06 06:26:00;;;;;;;1.50;1.00;;;;;;;12.06;100.00;98623.02;88495;280;137171;-75
2023/11/06 06:28:04;;;;;;;3.60;1.30;;;;;;;12.05;100.00;98631.05;88270;275;24246;-73
2023/11/06 06:30:07;;;;;;;2.90;1.30;;;;;;;11.92;100.00;98618.16;88272;276;22599;-74
2023/11/06 06:32:11;;;;;;;1.20;0.80;;;;;;;11.99;100.00;98634.20;88372;281;137059;-74
2023/11/06 06:34:13;;;;;;;2.80;0.90;;;;;;;12.08;100.00;98639.05;88323;282;22535;-72
2023/11/06 06:36:15;;;;;;;1.90;1.40;;;;;;;12.11;100.00;98642.11;88230;284;136981;-70
2023/11/06 06:38:18;;;;;;;1.60;1.30;;;;;;;12.14;100.00;98640.80;88261;283;24176;-77
2023/11/06 06:40:20;;;;;;;1.70;1.30;;;;;;;12.17;100.00;98650.18;88257;283;138137;-75
2023/11/06 06:42:22;;;;;;;2.20;1.20;;;;;;;12.21;100.00;98639.33;88544;277;22614;-71
2023/11/06 06:44:24;;;;;;;1.90;1.20;;;;;;;12.26;100.00;98650.23;88452;273;136825;-77
2023/11/06 06:46:27;;;;;;;1.30;1.10;;;;;;;12.28;100.00;98649.08;88455;281;24023;-67
2023/11/06 06:48:29;;;;;;;1.70;1.30;;;;;;;12.27;100.00;98661.45;88392;281;137110;-66
2023/11/06 06:50:31;;;;;;;2.50;1.20;;;;;;;12.31;100.00;98664.15;88462;277;22814;-65
2023/11/06 06:52:33;;;;;;;2.80;1.00;;;;;;;12.32;100.00;98656.95;88203;273;137006;-68
2023/11/06 06:54:35;;;;;;;4.90;1.50;;;;;;;12.32;100.00;98655.39;88558;274;25213;-66
2023/11/06 06:56:38;;;;;;;3.50;1.50;;;;;;;12.39;100.00;98654.87;88389;277;136926;-68
2023/11/06 06:58:39;;;;;;;2.60;1.40;;;;;;;12.44;100.00;98658.44;88501;281;25212;-68
2023/11/06 07:00:41;;;;;;;3.70;1.40;;;;;;;12.49;100.00;98651.64;88254;275;136865;-67
2023/11/06 07:02:43;;;;;;;3.10;1.80;;;;;;;12.52;100.00;98649.31;88380;280;23208;-76
2023/11/06 07:04:46;;;;;;;2.50;1.90;;;;;;;12.54;100.00;98652.30;88403;273;136691;-75
2023/11/06 07:06:49;;;;;;;3.50;1.10;;;;;;;12.57;100.00;98655.22;88523;280;22543;-73
2023/11/06 07:08:56;;;;;;;1.50;1.00;;;;;;;12.59;100.00;98661.48;88356;273;137810;-74
2023/11/06 07:10:58;;;;;;;2.00;1.00;;;;;;;12.70;100.00;98667.24;88983;274;22524;-76
2023/11/06 07:12:59;;;;;;;3.80;1.30;;;;;;;12.75;100.00;98667.28;88384;277;138462;-76
2023/11/06 07:15:03;;;;;;;2.10;0.90;;;;;;;12.81;100.00;98663.89;88417;277;24027;-76
2023/11/06 07:17:04;;;;;;;2.50;0.80;;;;;;;12.85;100.00;98665.23;88289;277;136703;-78
2023/11/06 07:19:07;;;;;;;3.20;0.70;;;;;;;12.85;100.00;98666.84;88441;277;22593;-76
2023/11/06 07:21:08;;;;;;;2.80;1.10;;;;;;;12.87;100.00;98671.70;88513;273;136910;-78
2023/11/06 07:23:10;;;;;;;3.50;0.40;;;;;;;12.91;100.00;98672.17;88461;273;22531;-76
2023/11/06 07:25:12;;;;;;;1.80;0.80;;;;;;;12.98;100.00;98674.54;88307;273;137210;-75
2023/11/06 07:27:13;;;;;;;3.10;1.10;;;;;;;13.02;100.00;98678.17;88409;277;25631;-72
2023/11/06 07:29:16;;;;;;;1.70;1.10;;;;;;;13.05;100.00;98679.67;88413;273;138866;-74
2023/11/06 07:31:21;;;;;;;3.90;0.80;;;;;;;13.12;100.00;98691.05;88427;274;25080;-76
2023/11/06 07:33:22;;;;;;;1.80;0.80;;;;;;;13.14;100.00;98690.17;88390;277;136854;-77
2023/11/06 07:35:25;;;;;;;1.00;0.40;;;;;;;13.19;100.00;98689.71;88435;277;22615;-74
2023/11/06 07:37:29;;;;;;;0.80;0.80;;;;;;;13.28;100.00;98695.55;88506;273;136845;-74
2023/11/06 07:39:31;;;;;;;2.40;0.50;;;;;;;13.32;100.00;98696.55;88478;280;25365;-75
2023/11/06 07:41:33;;;;;;;1.30;0.50;;;;;;;13.29;100.00;98690.73;88175;276;137200;-78
2023/11/06 07:43:35;;;;;;;0.90;0.40;;;;;;;13.37;100.00;98697.44;88478;275;24018;-73
2023/11/06 07:45:37;;;;;;;0.40;0.30;;;;;;;13.45;100.00;98696.58;88247;274;138403;-73
2023/11/06 07:47:39;;;;;;;0.50;0.40;;;;;;;13.46;100.00;98703.39;88455;274;22537;-76
2023/11/06 07:49:41;;;;;;;1.20;0.70;;;;;;;13.43;100.00;98702.18;88620;273;137336;-73
2023/11/06 07:51:44;;;;;;;1.20;0.50;;;;;;;13.44;100.00;98700.20;88760;273;24164;-75
2023/11/06 07:53:46;;;;;;;2.10;0.40;;;;;;;13.50;100.00;98701.46;88489;280;136883;-74
2023/11/06 07:55:48;;;;;;;1.10;0.40;;;;;;;13.57;100.00;98700.81;88530;281;22616;-73
2023/11/06 07:57:50;;;;;;;1.00;0.60;;;;;;;13.65;100.00;98702.14;88708;281;138515;-69
2023/11/06 07:59:52;;;;;;;0.60;0.30;;;;;;;13.71;100.00;98704.40;88690;281;22527;-76
2023/11/06 08:01:54;;;;;;;0.30;0.20;;;;;;;13.75;100.00;98707.35;88351;273;136851;-74
2023/11/06 08:03:55;;;;;;;1.20;0.50;;;;;;;13.80;100.00;98713.19;88476;273;22543;-74
2023/11/06 08:05:57;;;;;;;1.50;0.30;;;;;;;13.84;100.00;98710.45;88082;274;719883;-75
2023/11/06 08:07:59;;;;;;;1.10;0.30;;;;;;;13.90;100.00;98717.17;88565;281;22808;-73
2023/11/06 08:10:01;;;;;;;1.60;0.40;;;;;;;13.94;100.00;98715.62;88292;275;136655;-75
2023/11/06 08:12:04;;;;;;;0.70;0.20;;;;;;;13.89;100.00;98706.51;88497;280;137199;-73
2023/11/06 08:14:06;;;;;;;0.30;0.20;;;;;;;14.05;100.00;98725.59;88741;273;22530;-74
2023/11/06 08:16:09;;;;;;;1.40;0.20;;;;;;;14.09;100.00;98728.32;88519;280;137028;-76
2023/11/06 08:18:10;;;;;;;5.70;0.20;;;;;;;14.12;100.00;98729.63;88295;277;24228;-73
2023/11/06 08:20:12;;;;;;;0.60;0.20;;;;;;;14.16;100.00;98726.75;88369;273;138050;-75
2023/11/06 08:22:14;;;;;;;0.30;0.20;;;;;;;14.17;100.00;98729.54;88433;277;22520;-78
2023/11/06 08:24:16;;;;;;;0.20;0.20;;;;;;;14.19;100.00;98733.15;88367;273;136309;-74
2023/11/06 08:26:20;;;;;;;2.40;0.20;;;;;;;14.28;100.00;98740.85;88393;273;25191;-75
2023/11/06 08:28:22;;;;;;;0.50;0.10;;;;;;;14.40;100.00;98741.95;88438;281;137287;-75
2023/11/06 08:30:24;;;;;;;0.20;0.10;;;;;;;14.54;100.00;98741.09;88496;273;22617;-76
2023/11/06 08:32:26;;;;;;;3.90;0.20;;;;;;;14.67;100.00;98741.91;88195;281;136365;-76
2023/11/06 08:34:28;;;;;;;0.90;0.20;;;;;;;14.75;100.00;98739.27;88384;274;22530;-74
2023/11/06 08:36:30;;;;;;;0.80;0.10;;;;;;;14.77;100.00;98739.39;88376;280;137043;-69
2023/11/06 08:38:32;;;;;;;0.30;0.10;;;;;;;14.75;100.00;98744.20;88510;273;22545;-75
2023/11/06 08:40:34;;;;;;;0.80;0.10;;;;;;;14.77;100.00;98747.55;88699;280;136557;-80
2023/11/06 08:42:37;;;;;;;1.60;0.30;;;;;;;14.80;100.00;98742.04;88502;275;23705;-74
2023/11/06 08:44:45;;;;;;;0.70;0.30;;;;;;;14.88;100.00;98752.25;88476;281;136182;-72
2023/11/06 08:46:49;;;;;;;1.30;0.20;;;;;;;14.90;100.00;98753.88;88586;273;25192;-73
2023/11/06 08:48:51;;;;;;;2.30;0.10;;;;;;;14.89;100.00;98756.77;88475;273;136049;-76
2023/11/06 08:50:53;;;;;;;0.60;0.30;;;;;;;14.91;100.00;98761.08;88763;279;24020;-78
2023/11/06 08:52:55;;;;;;;0.30;0.20;;;;;;;14.91;100.00;98766.44;88274;277;136369;-72
2023/11/06 08:54:57;;;;;;;1.40;0.30;;;;;;;14.91;100.00;98769.17;88464;275;24171;-76
2023/11/06 08:57:00;;;;;;;0.40;0.20;;;;;;;14.83;100.00;98762.39;88386;277;136145;-73
2023/11/06 08:59:02;;;;;;;0.80;0.30;;;;;;;14.90;100.00;98773.30;88668;273;24049;-78
2023/11/06 09:01:06;;;;;;;0.20;0.20;;;;;;;14.84;100.00;98774.27;88331;277;136316;-76
2023/11/06 09:03:11;;;;;;;2.50;0.10;;;;;;;14.80;100.00;98783.88;88657;278;22596;-74
2023/11/06 09:05:15;;;;;;;1.10;0.10;;;;;;;14.79;100.00;98779.69;88515;280;136334;-76
2023/11/06 09:07:17;;;;;;;2.40;0.20;;;;;;;14.77;100.00;98779.89;88649;273;23953;-75
2023/11/06 09:09:18;;;;;;;0.50;0.30;;;;;;;14.72;100.00;98781.08;88378;280;136429;-78
2023/11/06 09:11:21;;;;;;;0.60;0.40;;;;;;;14.67;100.00;98779.26;88458;278;26389;-76
2023/11/06 09:13:23;;;;;;;0.40;0.30;;;;;;;14.61;100.00;98774.95;88430;274;136204;-76
2023/11/06 09:15:24;;;;;;;0.30;0.30;;;;;;;14.56;100.00;98780.84;88445;277;22539;-76
2023/11/06 09:17:26;;;;;;;0.80;0.20;;;;;;;14.56;100.00;98776.70;88385;273;138429;-75
2023/11/06 09:19:28;;;;;;;0.90;0.10;;;;;;;14.55;100.00;98773.58;88481;279;25219;-73
2023/11/06 09:21:31;;;;;;;0.30;0.20;;;;;;;14.58;100.00;98768.44;88459;273;136721;-75
2023/11/06 09:23:32;;;;;;;3.20;0.20;;;;;;;14.64;100.00;98768.76;88387;273;24226;-71
2023/11/06 09:25:34;;;;;;;1.00;0.30;;;;;;;14.67;100.00;98771.73;88306;273;137030;-72
2023/11/06 09:27:36;;;;;;;0.60;0.30;;;;;;;14.73;100.00;98775.34;88464;273;25150;-72
2023/11/06 09:29:38;;;;;;;0.70;0.50;;;;;;;14.72;100.00;98766.15;88457;273;138291;-75
2023/11/06 09:31:45;;;;;;;0.30;0.30;;;;;;;14.83;100.00;98774.58;88714;279;23053;-79